sensor_id;sensor_type;location;lat;lon;timestamp;P1;durP1;ratioP1;P2;durP2;ratioP2
37067;SDS011;22982;42.848;25.468;2023-02-28T00:01:57;32.05;;;20.80;;
37067;SDS011;22982;42.848;25.468;2023-02-28T00:07:00;29.15;;;20.83;;
37067;SDS011;22982;42.848;25.468;2023-02-28T00:12:02;30.48;;;22.55;;
37067;SDS011;22982;42.848;25.468;2023-02-28T00:17:11;28.63;;;20.20;;
37067;SDS011;22982;42.848;25.468;2023-02-28T00:22:15;26.90;;;19.75;;
37067;SDS011;22982;42.848;25.468;2023-02-28T00:27:18;25.52;;;19.13;;
37067;SDS011;22982;42.848;25.468;2023-02-28T00:32:20;24.08;;;17.25;;
37067;SDS011;22982;42.848;25.468;2023-02-28T00:37:23;57.08;;;35.55;;
37067;SDS011;22982;42.848;25.468;2023-02-28T00:42:25;32.88;;;21.73;;
37067;SDS011;22982;42.848;25.468;2023-02-28T00:47:27;31.10;;;20.38;;
37067;SDS011;22982;42.848;25.468;2023-02-28T00:52:30;24.80;;;17.73;;
37067;SDS011;22982;42.848;25.468;2023-02-28T00:57:33;27.88;;;18.02;;
37067;SDS011;22982;42.848;25.468;2023-02-28T01:02:35;26.58;;;18.48;;
37067;SDS011;22982;42.848;25.468;2023-02-28T01:07:37;25.42;;;18.38;;
37067;SDS011;22982;42.848;25.468;2023-02-28T01:12:40;29.63;;;18.63;;
37067;SDS011;22982;42.848;25.468;2023-02-28T01:17:42;26.35;;;17.95;;
37067;SDS011;22982;42.848;25.468;2023-02-28T01:22:44;29.38;;;19.00;;
37067;SDS011;22982;42.848;25.468;2023-02-28T01:27:46;32.35;;;19.25;;
37067;SDS011;22982;42.848;25.468;2023-02-28T01:32:49;28.55;;;19.27;;
37067;SDS011;22982;42.848;25.468;2023-02-28T01:37:53;34.10;;;19.05;;
37067;SDS011;22982;42.848;25.468;2023-02-28T01:42:55;28.98;;;19.58;;
37067;SDS011;22982;42.848;25.468;2023-02-28T01:47:58;32.72;;;19.83;;
37067;SDS011;22982;42.848;25.468;2023-02-28T01:53:04;36.35;;;21.77;;
37067;SDS011;22982;42.848;25.468;2023-02-28T01:58:10;28.13;;;16.77;;
37067;SDS011;22982;42.848;25.468;2023-02-28T02:03:14;33.78;;;21.40;;
37067;SDS011;22982;42.848;25.468;2023-02-28T02:08:25;37.45;;;23.63;;
37067;SDS011;22982;42.848;25.468;2023-02-28T02:18:57;40.72;;;21.63;;
37067;SDS011;22982;42.848;25.468;2023-02-28T02:24:45;41.88;;;24.77;;
37067;SDS011;22982;42.848;25.468;2023-02-28T02:45:25;54.55;;;30.92;;
37067;SDS011;22982;42.848;25.468;2023-02-28T02:50:38;36.95;;;22.35;;
37067;SDS011;22982;42.848;25.468;2023-02-28T02:55:46;33.70;;;19.98;;
37067;SDS011;22982;42.848;25.468;2023-02-28T03:00:57;32.97;;;19.42;;
37067;SDS011;22982;42.848;25.468;2023-02-28T03:06:05;43.95;;;25.83;;
37067;SDS011;22982;42.848;25.468;2023-02-28T03:11:12;59.22;;;33.17;;
37067;SDS011;22982;42.848;25.468;2023-02-28T03:26:58;42.50;;;23.58;;
37067;SDS011;22982;42.848;25.468;2023-02-28T03:32:58;31.02;;;20.23;;
37067;SDS011;22982;42.848;25.468;2023-02-28T03:37:45;35.42;;;20.45;;
37067;SDS011;22982;42.848;25.468;2023-02-28T03:42:49;29.70;;;19.40;;
37067;SDS011;22982;42.848;25.468;2023-02-28T03:53:18;33.13;;;21.20;;
37067;SDS011;22982;42.848;25.468;2023-02-28T03:58:38;37.75;;;23.42;;
37067;SDS011;22982;42.848;25.468;2023-02-28T04:04:00;35.40;;;21.88;;
37067;SDS011;22982;42.848;25.468;2023-02-28T04:09:03;41.45;;;25.08;;
37067;SDS011;22982;42.848;25.468;2023-02-28T04:14:08;38.22;;;23.33;;
37067;SDS011;22982;42.848;25.468;2023-02-28T04:19:12;36.38;;;23.35;;
37067;SDS011;22982;42.848;25.468;2023-02-28T04:24:16;44.60;;;21.10;;
37067;SDS011;22982;42.848;25.468;2023-02-28T04:29:27;39.58;;;23.45;;
37067;SDS011;22982;42.848;25.468;2023-02-28T04:34:31;34.42;;;21.08;;
37067;SDS011;22982;42.848;25.468;2023-02-28T04:39:35;35.03;;;21.85;;
37067;SDS011;22982;42.848;25.468;2023-02-28T04:44:38;35.35;;;22.17;;
37067;SDS011;22982;42.848;25.468;2023-02-28T04:49:41;35.95;;;20.58;;
37067;SDS011;22982;42.848;25.468;2023-02-28T04:54:44;35.75;;;23.55;;
37067;SDS011;22982;42.848;25.468;2023-02-28T04:59:46;37.75;;;22.70;;
37067;SDS011;22982;42.848;25.468;2023-02-28T05:04:48;39.60;;;23.95;;
37067;SDS011;22982;42.848;25.468;2023-02-28T05:09:50;34.97;;;21.65;;
37067;SDS011;22982;42.848;25.468;2023-02-28T05:14:53;33.00;;;21.88;;
37067;SDS011;22982;42.848;25.468;2023-02-28T05:19:55;34.63;;;22.45;;
37067;SDS011;22982;42.848;25.468;2023-02-28T05:25:17;36.80;;;22.85;;
37067;SDS011;22982;42.848;25.468;2023-02-28T05:30:21;41.83;;;24.55;;
37067;SDS011;22982;42.848;25.468;2023-02-28T05:35:23;53.70;;;27.35;;
37067;SDS011;22982;42.848;25.468;2023-02-28T05:40:26;53.13;;;27.23;;
37067;SDS011;22982;42.848;25.468;2023-02-28T05:45:28;43.03;;;26.27;;
37067;SDS011;22982;42.848;25.468;2023-02-28T05:50:31;47.70;;;26.65;;
37067;SDS011;22982;42.848;25.468;2023-02-28T05:55:33;44.45;;;25.98;;
37067;SDS011;22982;42.848;25.468;2023-02-28T06:00:37;40.85;;;24.38;;
37067;SDS011;22982;42.848;25.468;2023-02-28T06:05:42;49.92;;;28.10;;
37067;SDS011;22982;42.848;25.468;2023-02-28T06:10:45;36.63;;;24.58;;
37067;SDS011;22982;42.848;25.468;2023-02-28T06:15:47;47.53;;;29.40;;
37067;SDS011;22982;42.848;25.468;2023-02-28T06:20:53;40.42;;;26.20;;
37067;SDS011;22982;42.848;25.468;2023-02-28T06:25:59;40.97;;;25.38;;
37067;SDS011;22982;42.848;25.468;2023-02-28T06:31:06;51.55;;;31.10;;
37067;SDS011;22982;42.848;25.468;2023-02-28T06:36:13;43.55;;;26.48;;
37067;SDS011;22982;42.848;25.468;2023-02-28T06:41:16;46.83;;;27.35;;
37067;SDS011;22982;42.848;25.468;2023-02-28T06:46:19;41.22;;;23.80;;
37067;SDS011;22982;42.848;25.468;2023-02-28T06:51:21;47.83;;;26.52;;
37067;SDS011;22982;42.848;25.468;2023-02-28T06:56:24;46.47;;;29.30;;
37067;SDS011;22982;42.848;25.468;2023-02-28T07:01:26;36.97;;;23.90;;
37067;SDS011;22982;42.848;25.468;2023-02-28T07:06:30;31.02;;;21.00;;
37067;SDS011;22982;42.848;25.468;2023-02-28T07:11:32;34.58;;;22.45;;
37067;SDS011;22982;42.848;25.468;2023-02-28T07:16:35;36.35;;;22.58;;
37067;SDS011;22982;42.848;25.468;2023-02-28T07:21:37;37.90;;;24.63;;
37067;SDS011;22982;42.848;25.468;2023-02-28T07:26:40;35.08;;;20.50;;
37067;SDS011;22982;42.848;25.468;2023-02-28T07:31:42;32.97;;;21.35;;
37067;SDS011;22982;42.848;25.468;2023-02-28T07:36:45;38.17;;;21.85;;
37067;SDS011;22982;42.848;25.468;2023-02-28T07:41:47;39.08;;;23.52;;
37067;SDS011;22982;42.848;25.468;2023-02-28T07:46:49;36.47;;;23.45;;
37067;SDS011;22982;42.848;25.468;2023-02-28T07:51:52;41.22;;;24.88;;
37067;SDS011;22982;42.848;25.468;2023-02-28T07:56:54;40.38;;;26.23;;
37067;SDS011;22982;42.848;25.468;2023-02-28T08:01:57;52.55;;;28.00;;
37067;SDS011;22982;42.848;25.468;2023-02-28T08:07:01;42.67;;;27.20;;
37067;SDS011;22982;42.848;25.468;2023-02-28T08:12:03;40.55;;;25.70;;
37067;SDS011;22982;42.848;25.468;2023-02-28T08:17:05;56.53;;;33.22;;
37067;SDS011;22982;42.848;25.468;2023-02-28T08:22:08;40.28;;;26.38;;
37067;SDS011;22982;42.848;25.468;2023-02-28T08:27:10;45.60;;;26.55;;
37067;SDS011;22982;42.848;25.468;2023-02-28T08:32:12;38.95;;;26.13;;
37067;SDS011;22982;42.848;25.468;2023-02-28T08:37:29;39.95;;;25.17;;
37067;SDS011;22982;42.848;25.468;2023-02-28T08:42:32;35.53;;;23.48;;
37067;SDS011;22982;42.848;25.468;2023-02-28T08:47:34;36.53;;;22.95;;
37067;SDS011;22982;42.848;25.468;2023-02-28T08:52:36;36.17;;;24.33;;
37067;SDS011;22982;42.848;25.468;2023-02-28T08:57:40;32.53;;;21.77;;
37067;SDS011;22982;42.848;25.468;2023-02-28T09:02:42;35.20;;;20.60;;
37067;SDS011;22982;42.848;25.468;2023-02-28T09:07:45;31.63;;;19.42;;
37067;SDS011;22982;42.848;25.468;2023-02-28T09:12:47;30.17;;;20.00;;
37067;SDS011;22982;42.848;25.468;2023-02-28T09:17:50;27.67;;;17.20;;
37067;SDS011;22982;42.848;25.468;2023-02-28T09:22:52;33.70;;;18.80;;
37067;SDS011;22982;42.848;25.468;2023-02-28T09:27:54;26.80;;;17.70;;
37067;SDS011;22982;42.848;25.468;2023-02-28T09:32:57;28.67;;;17.77;;
37067;SDS011;22982;42.848;25.468;2023-02-28T09:37:59;24.98;;;15.90;;
37067;SDS011;22982;42.848;25.468;2023-02-28T09:43:05;26.38;;;16.42;;
37067;SDS011;22982;42.848;25.468;2023-02-28T09:48:23;29.65;;;18.90;;
37067;SDS011;22982;42.848;25.468;2023-02-28T09:53:32;46.55;;;30.15;;
37067;SDS011;22982;42.848;25.468;2023-02-28T09:58:42;33.35;;;22.15;;
37067;SDS011;22982;42.848;25.468;2023-02-28T10:03:52;60.15;;;38.47;;
37067;SDS011;22982;42.848;25.468;2023-02-28T10:09:20;143.65;;;75.90;;
37067;SDS011;22982;42.848;25.468;2023-02-28T10:14:32;52.83;;;33.03;;
37067;SDS011;22982;42.848;25.468;2023-02-28T10:19:44;42.67;;;26.38;;
37067;SDS011;22982;42.848;25.468;2023-02-28T10:24:52;24.27;;;15.75;;
37067;SDS011;22982;42.848;25.468;2023-02-28T10:29:59;28.42;;;18.98;;
37067;SDS011;22982;42.848;25.468;2023-02-28T10:35:10;27.02;;;17.38;;
37067;SDS011;22982;42.848;25.468;2023-02-28T10:40:26;49.35;;;23.08;;
37067;SDS011;22982;42.848;25.468;2023-02-28T10:50:42;52.72;;;27.13;;
37067;SDS011;22982;42.848;25.468;2023-02-28T10:55:45;46.78;;;28.90;;
37067;SDS011;22982;42.848;25.468;2023-02-28T11:00:58;55.95;;;24.58;;
37067;SDS011;22982;42.848;25.468;2023-02-28T11:06:05;61.00;;;21.30;;
37067;SDS011;22982;42.848;25.468;2023-02-28T11:11:10;65.30;;;40.33;;
37067;SDS011;22982;42.848;25.468;2023-02-28T11:16:13;44.28;;;20.23;;
37067;SDS011;22982;42.848;25.468;2023-02-28T11:21:19;38.60;;;19.33;;
37067;SDS011;22982;42.848;25.468;2023-02-28T11:26:38;46.80;;;26.67;;
37067;SDS011;22982;42.848;25.468;2023-02-28T11:32:05;49.92;;;15.55;;
37067;SDS011;22982;42.848;25.468;2023-02-28T11:37:15;39.10;;;17.35;;
37067;SDS011;22982;42.848;25.468;2023-02-28T11:47:45;58.10;;;21.40;;
37067;SDS011;22982;42.848;25.468;2023-02-28T11:52:56;63.95;;;19.42;;
37067;SDS011;22982;42.848;25.468;2023-02-28T11:58:25;60.75;;;20.42;;
37067;SDS011;22982;42.848;25.468;2023-02-28T12:03:45;55.17;;;24.13;;
37067;SDS011;22982;42.848;25.468;2023-02-28T12:14:55;95.07;;;33.45;;
37067;SDS011;22982;42.848;25.468;2023-02-28T12:20:10;38.85;;;18.90;;
37067;SDS011;22982;42.848;25.468;2023-02-28T12:31:00;90.07;;;29.73;;
37067;SDS011;22982;42.848;25.468;2023-02-28T12:36:10;114.82;;;39.78;;
37067;SDS011;22982;42.848;25.468;2023-02-28T12:41:20;85.80;;;35.60;;
37067;SDS011;22982;42.848;25.468;2023-02-28T12:46:30;55.58;;;24.30;;
37067;SDS011;22982;42.848;25.468;2023-02-28T12:51:38;58.10;;;24.48;;
37067;SDS011;22982;42.848;25.468;2023-02-28T12:56:47;44.13;;;22.10;;
37067;SDS011;22982;42.848;25.468;2023-02-28T13:13:04;35.22;;;19.05;;
37067;SDS011;22982;42.848;25.468;2023-02-28T13:18:19;34.78;;;20.70;;
37067;SDS011;22982;42.848;25.468;2023-02-28T13:34:14;27.50;;;17.67;;
37067;SDS011;22982;42.848;25.468;2023-02-28T13:45:18;24.27;;;15.82;;
37067;SDS011;22982;42.848;25.468;2023-02-28T13:55:31;25.23;;;16.03;;
37067;SDS011;22982;42.848;25.468;2023-02-28T14:06:17;18.55;;;13.57;;
37067;SDS011;22982;42.848;25.468;2023-02-28T14:16:37;15.90;;;9.60;;
37067;SDS011;22982;42.848;25.468;2023-02-28T14:27:24;71.68;;;34.40;;
37067;SDS011;22982;42.848;25.468;2023-02-28T14:32:47;15.10;;;11.57;;
37067;SDS011;22982;42.848;25.468;2023-02-28T14:38:04;12.52;;;9.23;;
37067;SDS011;22982;42.848;25.468;2023-02-28T14:43:19;29.15;;;23.13;;
37067;SDS011;22982;42.848;25.468;2023-02-28T14:48:24;13.95;;;10.27;;
37067;SDS011;22982;42.848;25.468;2023-02-28T14:53:29;24.75;;;17.45;;
37067;SDS011;22982;42.848;25.468;2023-02-28T14:58:37;14.20;;;9.73;;
37067;SDS011;22982;42.848;25.468;2023-02-28T15:03:39;13.65;;;9.15;;
37067;SDS011;22982;42.848;25.468;2023-02-28T15:08:44;16.55;;;11.00;;
37067;SDS011;22982;42.848;25.468;2023-02-28T15:13:51;9.35;;;7.13;;
37067;SDS011;22982;42.848;25.468;2023-02-28T15:19:00;15.10;;;9.70;;
37067;SDS011;22982;42.848;25.468;2023-02-28T15:24:17;16.85;;;11.65;;
37067;SDS011;22982;42.848;25.468;2023-02-28T15:29:36;56.55;;;47.00;;
37067;SDS011;22982;42.848;25.468;2023-02-28T15:34:45;11.70;;;8.68;;
37067;SDS011;22982;42.848;25.468;2023-02-28T15:39:48;38.15;;;29.63;;
37067;SDS011;22982;42.848;25.468;2023-02-28T15:44:50;31.17;;;21.65;;
37067;SDS011;22982;42.848;25.468;2023-02-28T15:50:00;14.82;;;9.93;;
37067;SDS011;22982;42.848;25.468;2023-02-28T15:55:21;86.18;;;47.42;;
37067;SDS011;22982;42.848;25.468;2023-02-28T16:00:28;19.77;;;12.77;;
37067;SDS011;22982;42.848;25.468;2023-02-28T16:05:34;19.45;;;13.25;;
37067;SDS011;22982;42.848;25.468;2023-02-28T16:10:37;58.40;;;34.42;;
37067;SDS011;22982;42.848;25.468;2023-02-28T16:15:41;60.15;;;34.67;;
37067;SDS011;22982;42.848;25.468;2023-02-28T16:20:45;38.63;;;25.13;;
37067;SDS011;22982;42.848;25.468;2023-02-28T16:25:47;13.57;;;10.35;;
37067;SDS011;22982;42.848;25.468;2023-02-28T16:30:52;7.93;;;6.35;;
37067;SDS011;22982;42.848;25.468;2023-02-28T16:35:55;15.25;;;11.00;;
37067;SDS011;22982;42.848;25.468;2023-02-28T16:40:58;49.45;;;31.52;;
37067;SDS011;22982;42.848;25.468;2023-02-28T16:46:02;31.15;;;18.75;;
37067;SDS011;22982;42.848;25.468;2023-02-28T16:51:06;86.60;;;47.22;;
37067;SDS011;22982;42.848;25.468;2023-02-28T16:56:19;26.48;;;17.55;;
37067;SDS011;22982;42.848;25.468;2023-02-28T17:01:23;30.63;;;20.63;;
37067;SDS011;22982;42.848;25.468;2023-02-28T17:06:26;28.33;;;18.77;;
37067;SDS011;22982;42.848;25.468;2023-02-28T17:11:30;54.63;;;37.35;;
37067;SDS011;22982;42.848;25.468;2023-02-28T17:16:33;55.75;;;44.13;;
37067;SDS011;22982;42.848;25.468;2023-02-28T17:21:38;68.47;;;32.03;;
37067;SDS011;22982;42.848;25.468;2023-02-28T17:26:43;37.05;;;23.08;;
37067;SDS011;22982;42.848;25.468;2023-02-28T17:31:45;69.07;;;43.80;;
37067;SDS011;22982;42.848;25.468;2023-02-28T17:36:49;41.55;;;26.67;;
37067;SDS011;22982;42.848;25.468;2023-02-28T17:41:53;86.82;;;50.42;;
37067;SDS011;22982;42.848;25.468;2023-02-28T17:46:56;97.40;;;59.15;;
37067;SDS011;22982;42.848;25.468;2023-02-28T17:51:59;98.03;;;62.78;;
37067;SDS011;22982;42.848;25.468;2023-02-28T17:57:01;60.72;;;30.63;;
37067;SDS011;22982;42.848;25.468;2023-02-28T18:02:03;116.25;;;57.10;;
37067;SDS011;22982;42.848;25.468;2023-02-28T18:07:06;59.85;;;36.88;;
37067;SDS011;22982;42.848;25.468;2023-02-28T18:12:13;56.67;;;33.92;;
37067;SDS011;22982;42.848;25.468;2023-02-28T18:17:15;255.68;;;88.57;;
37067;SDS011;22982;42.848;25.468;2023-02-28T18:22:18;401.52;;;123.90;;
37067;SDS011;22982;42.848;25.468;2023-02-28T18:27:20;139.65;;;58.72;;
37067;SDS011;22982;42.848;25.468;2023-02-28T18:32:22;100.60;;;42.15;;
37067;SDS011;22982;42.848;25.468;2023-02-28T18:37:25;35.03;;;22.98;;
37067;SDS011;22982;42.848;25.468;2023-02-28T18:42:28;25.20;;;14.35;;
37067;SDS011;22982;42.848;25.468;2023-02-28T18:47:30;13.25;;;9.35;;
37067;SDS011;22982;42.848;25.468;2023-02-28T18:52:33;38.33;;;21.77;;
37067;SDS011;22982;42.848;25.468;2023-02-28T18:57:35;88.75;;;52.08;;
37067;SDS011;22982;42.848;25.468;2023-02-28T19:02:37;52.33;;;33.13;;
37067;SDS011;22982;42.848;25.468;2023-02-28T19:07:40;61.03;;;31.92;;
37067;SDS011;22982;42.848;25.468;2023-02-28T19:12:42;61.42;;;42.35;;
37067;SDS011;22982;42.848;25.468;2023-02-28T19:17:45;49.97;;;33.45;;
37067;SDS011;22982;42.848;25.468;2023-02-28T19:22:47;65.40;;;40.00;;
37067;SDS011;22982;42.848;25.468;2023-02-28T19:27:53;76.70;;;42.45;;
37067;SDS011;22982;42.848;25.468;2023-02-28T19:32:57;96.05;;;57.03;;
37067;SDS011;22982;42.848;25.468;2023-02-28T19:37:59;80.47;;;48.60;;
37067;SDS011;22982;42.848;25.468;2023-02-28T19:43:01;57.17;;;35.78;;
37067;SDS011;22982;42.848;25.468;2023-02-28T19:48:06;85.13;;;44.88;;
37067;SDS011;22982;42.848;25.468;2023-02-28T19:53:10;46.97;;;28.65;;
37067;SDS011;22982;42.848;25.468;2023-02-28T19:58:12;49.65;;;29.00;;
37067;SDS011;22982;42.848;25.468;2023-02-28T20:03:15;47.65;;;26.77;;
37067;SDS011;22982;42.848;25.468;2023-02-28T20:08:19;43.95;;;24.52;;
37067;SDS011;22982;42.848;25.468;2023-02-28T20:13:21;69.22;;;33.35;;
37067;SDS011;22982;42.848;25.468;2023-02-28T20:18:29;80.57;;;38.38;;
37067;SDS011;22982;42.848;25.468;2023-02-28T20:23:31;74.22;;;35.42;;
37067;SDS011;22982;42.848;25.468;2023-02-28T20:28:34;54.90;;;33.65;;
37067;SDS011;22982;42.848;25.468;2023-02-28T20:33:36;17.77;;;11.25;;
37067;SDS011;22982;42.848;25.468;2023-02-28T20:38:39;22.00;;;12.35;;
37067;SDS011;22982;42.848;25.468;2023-02-28T20:43:42;11.52;;;7.95;;
37067;SDS011;22982;42.848;25.468;2023-02-28T20:48:44;47.88;;;24.50;;
37067;SDS011;22982;42.848;25.468;2023-02-28T20:53:47;50.58;;;25.30;;
37067;SDS011;22982;42.848;25.468;2023-02-28T20:58:50;28.45;;;15.82;;
37067;SDS011;22982;42.848;25.468;2023-02-28T21:03:58;35.25;;;18.75;;
37067;SDS011;22982;42.848;25.468;2023-02-28T21:09:05;16.38;;;10.00;;
37067;SDS011;22982;42.848;25.468;2023-02-28T21:14:11;8.45;;;5.57;;
37067;SDS011;22982;42.848;25.468;2023-02-28T21:19:15;17.77;;;11.68;;
37067;SDS011;22982;42.848;25.468;2023-02-28T21:24:19;19.20;;;11.20;;
37067;SDS011;22982;42.848;25.468;2023-02-28T21:29:22;32.03;;;17.55;;
37067;SDS011;22982;42.848;25.468;2023-02-28T21:34:24;20.95;;;12.30;;
37067;SDS011;22982;42.848;25.468;2023-02-28T21:39:29;21.05;;;12.05;;
37067;SDS011;22982;42.848;25.468;2023-02-28T21:44:31;10.82;;;7.20;;
37067;SDS011;22982;42.848;25.468;2023-02-28T21:49:35;9.13;;;6.80;;
37067;SDS011;22982;42.848;25.468;2023-02-28T21:54:39;7.78;;;5.60;;
37067;SDS011;22982;42.848;25.468;2023-02-28T21:59:42;6.85;;;5.03;;
37067;SDS011;22982;42.848;25.468;2023-02-28T22:04:44;7.97;;;5.15;;
37067;SDS011;22982;42.848;25.468;2023-02-28T22:09:46;9.38;;;5.70;;
37067;SDS011;22982;42.848;25.468;2023-02-28T22:14:48;14.65;;;8.45;;
37067;SDS011;22982;42.848;25.468;2023-02-28T22:19:51;38.08;;;21.33;;
37067;SDS011;22982;42.848;25.468;2023-02-28T22:24:53;6.28;;;4.20;;
37067;SDS011;22982;42.848;25.468;2023-02-28T22:29:56;6.53;;;4.55;;
37067;SDS011;22982;42.848;25.468;2023-02-28T22:34:59;3.53;;;2.90;;
37067;SDS011;22982;42.848;25.468;2023-02-28T22:40:01;4.45;;;2.90;;
37067;SDS011;22982;42.848;25.468;2023-02-28T22:45:04;3.03;;;2.35;;
37067;SDS011;22982;42.848;25.468;2023-02-28T22:50:06;3.78;;;2.22;;
37067;SDS011;22982;42.848;25.468;2023-02-28T22:55:09;4.75;;;2.10;;
37067;SDS011;22982;42.848;25.468;2023-02-28T23:00:11;2.60;;;1.65;;
37067;SDS011;22982;42.848;25.468;2023-02-28T23:05:16;2.78;;;2.33;;
37067;SDS011;22982;42.848;25.468;2023-02-28T23:10:19;3.83;;;2.65;;
37067;SDS011;22982;42.848;25.468;2023-02-28T23:15:21;2.08;;;1.88;;
37067;SDS011;22982;42.848;25.468;2023-02-28T23:20:24;10.68;;;5.03;;
37067;SDS011;22982;42.848;25.468;2023-02-28T23:25:26;19.08;;;10.57;;
37067;SDS011;22982;42.848;25.468;2023-02-28T23:30:28;3.13;;;1.90;;
37067;SDS011;22982;42.848;25.468;2023-02-28T23:35:31;4.45;;;3.03;;
37067;SDS011;22982;42.848;25.468;2023-02-28T23:40:35;1.92;;;1.40;;
37067;SDS011;22982;42.848;25.468;2023-02-28T23:45:38;2.33;;;1.60;;
37067;SDS011;22982;42.848;25.468;2023-02-28T23:50:41;1.52;;;1.42;;
37067;SDS011;22982;42.848;25.468;2023-02-28T23:55:44;2.13;;;1.55;;
